Flight Track Log - Related Links

Times and Time Zones

All times are in EDT time to prevent confusion due to time zone crossing. See the RPA3152 flight status page for this flight to view local times or setup timezone preferences in your user account.

Time Position Orientation Groundspeed Altitude Reporting Facility
EDT Latitude Longitude Course Direction KTS MPH feet Rate Location/Type
Sun 10:31:40 PM 38.8833 -77.0667 83° East 152 175 2,300  Level Potomac TRACON
Sun 10:33:17 PM 38.9556 -77.1478 319° Northwest 198 228 6,400 2,826 Climbing Washington Center
Sun 10:34:15 PM 39.0122 -77.1011 33° Northeast 199 229 9,600 2,723 Climbing Washington Center
Sun 10:35:00 PM 39.1192 -76.2616 57° Northeast  Level FlightAware Approximate
Sun 10:35:16 PM 39.0306 -76.9783 79° East 225 259 11,800  Level Washington Center
Sun 10:36:00 PM 39.1612 -76.1054 83° East  Level FlightAware Approximate
Sun 10:36:16 PM 39.0506 -76.8506 79° East 282 325 14,200  Level Washington Center
Sun 10:37:17 PM 39.0728 -76.7119 78° East 349 402 16,500 2,083 Climbing Washington Center
Sun 10:38:17 PM 39.0950 -76.5678 79° East 386 444 18,400 1,934 Climbing Washington Center
Sun 10:39:18 PM 39.1189 -76.4131 79° East 418 481 20,400 1,900 Climbing Washington Center
Sun 10:40:17 PM 39.1450 -76.2500 78° East 441 507 22,200 1,311 Climbing Washington Center
Sun 10:41:17 PM 39.1731 -76.0575 79° East 482 555 23,000 1,140 Climbing Washington Center
Sun 10:42:18 PM 39.2069 -75.8836 76° East 495 570 24,500 1,462 Climbing Washington Center
Sun 10:43:16 PM 39.3008 -75.7444 49° Northeast 486 559 25,900 1,361 Climbing Washington Center
Sun 10:44:17 PM 39.4031 -75.6131 45° Northeast 496 571 27,200 1,300 Climbing Washington Center
Sun 10:45:16 PM 39.5092 -75.4733 45° Northeast 512 589 28,500 1,361 Climbing Washington Center
Sun 10:46:16 PM 39.6133 -75.3356 46° Northeast 523 602 29,900 1,190 Climbing Washington Center
Sun 10:47:17 PM 39.7169 -75.1922 47° Northeast 533 613 30,900 545 Climbing Washington Center
Sun 10:48:17 PM 39.8228 -75.0431 47° Northeast 543 625 31,000 45 Climbing Washington Center
Sun 10:49:31 PM 39.9400 -74.8725 48° Northeast 571 657 31,000  Level New York Center
Sun 10:50:31 PM 40.0894 -74.7700 28° Northeast 542 624 31,000  Level New York Center
Sun 10:51:30 PM 40.2331 -74.7186 15° North 529 609 31,000  Level New York Center
Sun 10:52:29 PM 40.3617 -74.6689 16° North 529 609 31,000  Level New York Center
Sun 10:53:31 PM 40.5094 -74.6172 15° North 534 615 31,000  Level New York Center
Sun 10:54:30 PM 40.6569 -74.5653 15° North 540 621 31,000  Level New York Center
Sun 10:56:50 PM 40.9694 -74.4550 15° North 550 633 31,000  Level Boston Center
Sun 10:57:50 PM 41.1414 -74.3914 16° North 537 618 31,000  Level Boston Center
Sun 10:58:50 PM 41.2839 -74.3406 15° North 532 612 31,000  Level Boston Center
Sun 10:59:50 PM 41.4286 -74.2894 15° North 532 612 31,000  Level Boston Center
Sun 11:00:50 PM 41.5753 -74.2383 15° North 537 618 31,000  Level Boston Center
Sun 11:01:50 PM 41.7200 -74.1867 15° North 537 618 31,000  Level Boston Center
Sun 11:02:50 PM 41.8731 -74.1325 15° North 527 606 31,000  Level Boston Center
Sun 11:03:50 PM 42.0175 -74.0803 15° North 522 601 31,000  Level Boston Center
Sun 11:04:50 PM 42.1642 -74.0283 15° North 532 612 31,000  Level Boston Center
Sun 11:05:50 PM 42.3131 -73.9731 15° North 537 618 31,000  Level Boston Center
Sun 11:06:50 PM 42.4575 -73.9203 15° North 537 618 31,000 -600 Level Boston Center
Sun 11:07:50 PM 42.5725 -73.8781 15° North 537 618 29,800 -1,650 Descending Boston Center
Sun 11:08:50 PM 42.7339 -73.8194 15° North 532 612 27,700 -2,000 Descending Boston Center
Sun 11:09:50 PM 42.8742 -73.7661 16° North 532 612 25,800 -1,682 Descending Boston Center
Sun 11:11:02 PM 43.0417 -73.7042 15° North 522 601 24,000 -818 Descending Boston Center
Sun 11:12:02 PM 43.1922 -73.6419 17° North 510 587 24,000  Level Boston Center
Sun 11:13:02 PM 43.3303 -73.5933 14° North 510 587 24,000  Level Boston Center
Sun 11:14:14 PM 43.4664 -73.5414 15° North 510 587 24,000 -591 Level Boston Center
Sun 11:15:14 PM 43.6294 -73.4814 15° North 510 587 22,700 -1,900 Descending Boston Center
Sun 11:16:14 PM 43.7550 -73.4317 16° North 486 559 20,200 -2,700 Descending Boston Center
Sun 11:17:14 PM 43.8678 -73.3875 16° North 438 504 17,300 -3,050 Descending Boston Center
Sun 11:18:14 PM 43.9764 -73.3458 15° North 412 474 14,100 -2,500 Descending Boston Center
Sun 11:19:26 PM 44.0894 -73.3014 16° North 381 438 11,800 -1,773 Descending Boston Center
Sun 11:20:26 PM 44.1811 -73.2942 North 343 395 10,200 -1,950 Descending Boston Center
Sun 11:21:26 PM 44.2625 -73.2836 North 301 346 7,900 -2,150 Descending Boston Center
Sun 11:22:26 PM 44.3375 -73.2906 356° North 271 312 5,900 -2,000 Descending Boston Center
Sun 11:23:26 PM 44.4061 -73.3089 349° North 260 299 3,900 -1,400 Descending Boston Center
Sun 11:24:26 PM 44.4683 -73.3186 354° North 232 267 3,100 -750 Descending Boston Center
Sun 11:25:26 PM 44.5103 -73.2783 34° Northeast 189 217 2,400 -750 Descending Boston Center
Sun 11:26:26 PM 44.5169 -73.2261 80° East 141 162 1,600 -800 Descending Boston Center

Login

Don't have an account? Register now (free) for customized features, flight alerts, and more!